Time;durP1;ratioP1;P1;durP2;ratioP2;P2;SDS_P1;SDS_P2;PMS_P1;PMS_P2;Temp;Humidity;BMP_temperature;BMP_pressure;BME280_temperature;BME280_humidity;BME280_pressure;Samples;Min_cycle;Max_cycle;Signal;HPM_P1;HPM_P2
2022/03/06 00:01:51;;;;;;;;;;;;;;;;;;5091932;28;882;-67
2022/03/06 00:04:18;;;;;;;;;;;;;;;;;;5091810;28;1105;-68
2022/03/06 00:06:44;;;;;;;;;;;;;;;;;;5091913;28;829;-67
2022/03/06 00:09:11;;;;;;;;;;;;;;;;;;5092098;28;1313;-68
2022/03/06 00:11:37;;;;;;;;;;;;;;;;;;5091855;28;794;-67
2022/03/06 00:14:05;;;;;;;;;;;;;;;;;;5092241;28;1977;-67
2022/03/06 00:16:31;;;;;;;;;;;;;;;;;;5092013;28;1070;-67
2022/03/06 00:18:58;;;;;;;;;;;;;;;;;;5090845;28;1399;-68
2022/03/06 00:21:25;;;;;;;;;;;;;;;;;;5091768;28;829;-69
2022/03/06 00:23:51;;;;;;;;;;;;;;;;;;5091989;28;1126;-69
2022/03/06 00:26:17;;;;;;;;;;;;;;;;;;5099810;28;1199;-70
2022/03/06 00:28:44;;;;;;;;;;;;;;;;;;5112181;28;1386;-68
2022/03/06 00:31:12;;;;;;;;;;;;;;;;;;5111858;28;786;-67
2022/03/06 00:33:38;;;;;;;;;;;;;;;;;;5112095;28;1972;-67
2022/03/06 00:36:05;;;;;;;;;;;;;;;;;;5112059;28;1078;-67
2022/03/06 00:38:31;;;;;;;;;;;;;;;;;;5111736;28;1312;-67
2022/03/06 00:40:57;;;;;;;;;;;;;;;;;;5111350;28;1094;-68
2022/03/06 00:43:23;;;;;;;;;;;;;;;;;;5111703;28;992;-67
2022/03/06 00:45:49;;;;;;;;;;;;;;;;;;5111217;28;1477;-68
2022/03/06 00:48:17;;;;;;;;;;;;;;;;;;5111808;28;1157;-68
2022/03/06 00:50:43;;;;;;;;;;;;;;;;;;5111507;28;1390;-67
2022/03/06 00:53:09;;;;;;;;;;;;;;;;;;5127749;22;3626;-67
2022/03/06 00:55:36;;;;;;;;;;;;;;;;;;5112118;28;806;-67
2022/03/06 00:58:05;;;;;;;;;;;;;;;;;;5112166;28;952;-67
2022/03/06 01:00:34;;;;;;;;;;;;;;;;;;5111598;28;904;-68
2022/03/06 01:03:00;;;;;;;;;;;;;;;;;;5111707;28;1353;-67
2022/03/06 01:05:27;;;;;;;;;;;;;;;;;;5112402;28;979;-68
2022/03/06 01:07:54;;;;;;;;;;;;;;;;;;5111923;28;1118;-67
2022/03/06 01:10:20;;;;;;;;;;;;;;;;;;5111414;28;889;-67
2022/03/06 01:12:46;;;;;;;;;;;;;;;;;;5111469;28;1971;-67
2022/03/06 01:15:12;;;;;;;;;;;;;;;;;;5111584;28;851;-67
2022/03/06 01:17:39;;;;;;;;;;;;;;;;;;5111069;28;1079;-67
2022/03/06 01:20:06;;;;;;;;;;;;;;;;;;5111183;28;1082;-67
2022/03/06 01:22:33;;;;;;;;;;;;;;;;;;5111180;28;1403;-68
2022/03/06 01:25:00;;;;;;;;;;;;;;;;;;5111236;28;709;-67
2022/03/06 01:27:26;;;;;;;;;;;;;;;;;;5109394;28;1516;-67
2022/03/06 01:29:52;;;;;;;;;;;;;;;;;;5111100;28;1084;-67
2022/03/06 01:32:18;;;;;;;;;;;;;;;;;;5111481;28;1391;-68
2022/03/06 01:34:44;;;;;;;;;;;;;;;;;;5111164;28;1914;-69
2022/03/06 01:37:10;;;;;;;;;;;;;;;;;;5110998;28;1098;-67
2022/03/06 01:39:38;;;;;;;;;;;;;;;;;;5111272;28;1075;-67
2022/03/06 01:42:05;;;;;;;;;;;;;;;;;;5111099;28;1307;-67
2022/03/06 01:44:31;;;;;;;;;;;;;;;;;;5111139;28;900;-68
2022/03/06 01:46:57;;;;;;;;;;;;;;;;;;5111214;28;802;-67
2022/03/06 01:49:23;;;;;;;;;;;;;;;;;;5111106;28;1184;-67
2022/03/06 01:51:49;;;;;;;;;;;;;;;;;;5110732;28;1352;-68
2022/03/06 01:54:16;;;;;;;;;;;;;;;;;;5110983;28;1918;-67
2022/03/06 01:56:43;;;;;;;;;;;;;;;;;;5110726;28;1094;-67
2022/03/06 01:59:10;;;;;;;;;;;;;;;;;;5110933;28;804;-67
2022/03/06 02:01:36;;;;;;;;;;;;;;;;;;5110974;28;1460;-68
2022/03/06 02:04:02;;;;;;;;;;;;;;;;;;5111132;28;1137;-67
2022/03/06 02:06:29;;;;;;;;;;;;;;;;;;5111197;28;988;-68
2022/03/06 02:08:55;;;;;;;;;;;;;;;;;;5111116;28;1070;-68
2022/03/06 02:11:22;;;;;;;;;;;;;;;;;;5110666;28;1141;-67
2022/03/06 02:13:50;;;;;;;;;;;;;;;;;;5110841;28;1985;-68
2022/03/06 02:16:16;;;;;;;;;;;;;;;;;;5110827;28;1145;-67
2022/03/06 02:18:42;;;;;;;;;;;;;;;;;;5110723;28;1074;-68
2022/03/06 02:21:10;;;;;;;;;;;;;;;;;;5110827;28;746;-68
2022/03/06 02:23:36;;;;;;;;;;;;;;;;;;5110639;28;1342;-67
2022/03/06 02:26:03;;;;;;;;;;;;;;;;;;5105542;28;1327;-67
2022/03/06 02:28:29;;;;;;;;;;;;;;;;;;5076216;28;1277;-67
2022/03/06 02:30:55;;;;;;;;;;;;;;;;;;5094079;28;1131;-67
2022/03/06 02:33:21;;;;;;;;;;;;;;;;;;5094315;28;1967;-68
2022/03/06 02:35:48;;;;;;;;;;;;;;;;;;5094147;28;854;-67
2022/03/06 02:38:15;;;;;;;;;;;;;;;;;;5094420;28;1063;-68
2022/03/06 02:40:43;;;;;;;;;;;;;;;;;;5094072;28;956;-68
2022/03/06 02:43:10;;;;;;;;;;;;;;;;;;5095206;28;1471;-67
2022/03/06 02:45:38;;;;;;;;;;;;;;;;;;5112561;28;1430;-68
2022/03/06 02:48:04;;;;;;;;;;;;;;;;;;5114656;28;936;-67
2022/03/06 02:50:31;;;;;;;;;;;;;;;;;;5113952;28;980;-67
2022/03/06 02:52:58;;;;;;;;;;;;;;;;;;5114007;28;1347;-67
2022/03/06 02:55:26;;;;;;;;;;;;;;;;;;5114352;28;1913;-66
2022/03/06 02:57:53;;;;;;;;;;;;;;;;;;5095886;28;1114;-67
2022/03/06 03:00:20;;;;;;;;;;;;;;;;;;5114051;28;975;-67
2022/03/06 03:02:46;;;;;;;;;;;;;;;;;;5113953;28;1273;-68
2022/03/06 03:05:13;;;;;;;;;;;;;;;;;;5095980;28;877;-67
2022/03/06 03:07:40;;;;;;;;;;;;;;;;;;5114048;28;802;-67
2022/03/06 03:10:07;;;;;;;;;;;;;;;;;;5113455;28;1026;-67
2022/03/06 03:12:34;;;;;;;;;;;;;;;;;;5114013;28;1378;-67
2022/03/06 03:15:00;;;;;;;;;;;;;;;;;;5113870;28;1923;-67
2022/03/06 03:17:27;;;;;;;;;;;;;;;;;;5113857;28;1090;-67
2022/03/06 03:19:53;;;;;;;;;;;;;;;;;;5113683;28;801;-67
2022/03/06 03:22:19;;;;;;;;;;;;;;;;;;5113866;28;1402;-67
2022/03/06 03:24:45;;;;;;;;;;;;;;;;;;5113622;28;987;-67
2022/03/06 03:27:11;;;;;;;;;;;;;;;;;;5097636;28;1157;-67
2022/03/06 03:29:39;;;;;;;;;;;;;;;;;;5092970;28;1059;-67
2022/03/06 03:32:06;;;;;;;;;;;;;;;;;;5102899;28;1708;-68
2022/03/06 03:34:32;;;;;;;;;;;;;;;;;;5101410;28;1969;-68
2022/03/06 03:36:58;;;;;;;;;;;;;;;;;;5100825;28;1204;-67
2022/03/06 03:39:24;;;;;;;;;;;;;;;;;;5074568;28;1499;-67
2022/03/06 03:41:51;;;;;;;;;;;;;;;;;;5092774;28;1428;-67
2022/03/06 03:44:17;;;;;;;;;;;;;;;;;;5092939;28;1090;-67
2022/03/06 03:46:44;;;;;;;;;;;;;;;;;;5093012;28;1079;-68
2022/03/06 03:49:14;;;;;;;;;;;;;;;;;;5092871;28;1173;-67
2022/03/06 03:51:40;;;;;;;;;;;;;;;;;;5091965;28;1423;-68
2022/03/06 03:54:07;;;;;;;;;;;;;;;;;;5092656;28;1918;-68
2022/03/06 03:56:33;;;;;;;;;;;;;;;;;;5084747;28;2441;-67
2022/03/06 03:58:59;;;;;;;;;;;;;;;;;;5104461;28;1163;-68
2022/03/06 04:01:25;;;;;;;;;;;;;;;;;;5112944;28;1332;-68
2022/03/06 04:03:53;;;;;;;;;;;;;;;;;;5113157;28;1126;-68
2022/03/06 04:06:19;;;;;;;;;;;;;;;;;;5113048;28;1015;-67
2022/03/06 04:08:45;;;;;;;;;;;;;;;;;;5113112;28;874;-68
2022/03/06 04:11:11;;;;;;;;;;;;;;;;;;5112252;28;1145;-68
2022/03/06 04:13:37;;;;;;;;;;;;;;;;;;5112784;28;1389;-67
2022/03/06 04:16:04;;;;;;;;;;;;;;;;;;5112789;28;1921;-65
2022/03/06 04:18:30;;;;;;;;;;;;;;;;;;5112755;28;999;-67
2022/03/06 04:20:58;;;;;;;;;;;;;;;;;;5112384;28;781;-67
2022/03/06 04:23:24;;;;;;;;;;;;;;;;;;5112481;28;1270;-67
2022/03/06 04:25:50;;;;;;;;;;;;;;;;;;5086813;28;1200;-67
2022/03/06 04:28:16;;;;;;;;;;;;;;;;;;5092083;28;788;-67
2022/03/06 04:30:42;;;;;;;;;;;;;;;;;;5091809;28;1086;-67
2022/03/06 04:33:09;;;;;;;;;;;;;;;;;;5092083;28;1318;-68
2022/03/06 04:35:35;;;;;;;;;;;;;;;;;;5092085;28;1922;-68
2022/03/06 04:38:02;;;;;;;;;;;;;;;;;;5091846;28;1083;-67
2022/03/06 04:40:28;;;;;;;;;;;;;;;;;;5091766;28;703;-67
2022/03/06 04:42:55;;;;;;;;;;;;;;;;;;5102986;28;1470;-67
2022/03/06 04:45:23;;;;;;;;;;;;;;;;;;5112436;28;1019;-68
2022/03/06 04:47:49;;;;;;;;;;;;;;;;;;5112177;28;870;-67
2022/03/06 04:50:15;;;;;;;;;;;;;;;;;;5111346;28;1167;-68
2022/03/06 04:52:41;;;;;;;;;;;;;;;;;;5112663;28;1306;-67
2022/03/06 04:55:09;;;;;;;;;;;;;;;;;;5112083;28;1910;-66
2022/03/06 04:57:35;;;;;;;;;;;;;;;;;;5112103;28;1062;-65
2022/03/06 05:00:02;;;;;;;;;;;;;;;;;;5111703;28;870;-67
2022/03/06 05:02:28;;;;;;;;;;;;;;;;;;5093565;28;1313;-67
2022/03/06 05:04:54;;;;;;;;;;;;;;;;;;5111813;28;1101;-68
2022/03/06 05:07:21;;;;;;;;;;;;;;;;;;5093358;28;1628;-67
2022/03/06 05:09:47;;;;;;;;;;;;;;;;;;5111598;28;708;-67
2022/03/06 05:12:14;;;;;;;;;;;;;;;;;;5111504;28;1384;-68
2022/03/06 05:14:41;;;;;;;;;;;;;;;;;;5111665;28;1978;-67
2022/03/06 05:17:07;;;;;;;;;;;;;;;;;;5111796;28;1015;-67
2022/03/06 05:19:33;;;;;;;;;;;;;;;;;;5111563;28;785;-66
2022/03/06 05:21:59;;;;;;;;;;;;;;;;;;5093094;28;1304;-67
2022/03/06 05:24:26;;;;;;;;;;;;;;;;;;5111286;28;838;-68
2022/03/06 05:26:52;;;;;;;;;;;;;;;;;;5095401;28;1149;-68
2022/03/06 05:29:19;;;;;;;;;;;;;;;;;;5091306;28;964;-67
2022/03/06 05:31:46;;;;;;;;;;;;;;;;;;5103879;28;1340;-68
2022/03/06 05:34:12;;;;;;;;;;;;;;;;;;5110144;28;1981;-68
2022/03/06 05:36:38;;;;;;;;;;;;;;;;;;5105042;28;1479;-68
2022/03/06 05:39:04;;;;;;;;;;;;;;;;;;5100593;28;1315;-67
2022/03/06 05:41:30;;;;;;;;;;;;;;;;;;5108581;28;1378;-68
2022/03/06 05:43:57;;;;;;;;;;;;;;;;;;5073835;28;1503;-68
2022/03/06 05:46:24;;;;;;;;;;;;;;;;;;5099018;28;1460;-68
2022/03/06 05:48:50;;;;;;;;;;;;;;;;;;5109263;28;1075;-67
2022/03/06 05:51:17;;;;;;;;;;;;;;;;;;5104610;28;1527;-67
2022/03/06 05:53:43;;;;;;;;;;;;;;;;;;5109165;28;1312;-68
2022/03/06 05:56:09;;;;;;;;;;;;;;;;;;5088583;28;1975;-67
2022/03/06 05:58:35;;;;;;;;;;;;;;;;;;5088570;28;1139;-68
2022/03/06 06:01:01;;;;;;;;;;;;;;;;;;5101822;28;1452;-67
2022/03/06 06:03:29;;;;;;;;;;;;;;;;;;5088703;28;1326;-68
2022/03/06 06:05:55;;;;;;;;;;;;;;;;;;5103619;28;1476;-67
2022/03/06 06:08:21;;;;;;;;;;;;;;;;;;5085819;28;1492;-68
2022/03/06 06:10:48;;;;;;;;;;;;;;;;;;5108449;28;975;-68
2022/03/06 06:13:15;;;;;;;;;;;;;;;;;;5078409;28;1369;-68
2022/03/06 06:15:43;;;;;;;;;;;;;;;;;;5081151;28;1921;-67
2022/03/06 06:18:09;;;;;;;;;;;;;;;;;;5095989;28;1277;-68
2022/03/06 06:20:37;;;;;;;;;;;;;;;;;;5098874;28;1201;-68
2022/03/06 06:23:03;;;;;;;;;;;;;;;;;;5108549;28;1508;-67
2022/03/06 06:25:29;;;;;;;;;;;;;;;;;;5109215;28;1086;-68
2022/03/06 06:27:55;;;;;;;;;;;;;;;;;;5093354;28;1508;-68
2022/03/06 06:30:21;;;;;;;;;;;;;;;;;;5088364;28;996;-68
2022/03/06 06:32:48;;;;;;;;;;;;;;;;;;5082020;28;1545;-67
2022/03/06 06:35:14;;;;;;;;;;;;;;;;;;5108970;28;1979;-68
2022/03/06 06:37:41;;;;;;;;;;;;;;;;;;5093976;28;1480;-68
2022/03/06 06:40:08;;;;;;;;;;;;;;;;;;5088176;28;818;-68
2022/03/06 06:42:34;;;;;;;;;;;;;;;;;;5103663;28;1563;-68
2022/03/06 06:45:01;;;;;;;;;;;;;;;;;;5109308;28;896;-69
2022/03/06 06:47:28;;;;;;;;;;;;;;;;;;5094086;28;1515;-69
2022/03/06 06:49:54;;;;;;;;;;;;;;;;;;5088502;28;862;-68
2022/03/06 06:52:20;;;;;;;;;;;;;;;;;;5070873;28;1523;-67
2022/03/06 06:54:48;;;;;;;;;;;;;;;;;;5086681;28;1918;-67
2022/03/06 06:57:14;;;;;;;;;;;;;;;;;;5070413;28;1175;-67
2022/03/06 06:59:40;;;;;;;;;;;;;;;;;;5088095;28;1054;-66
2022/03/06 07:02:06;;;;;;;;;;;;;;;;;;5089275;28;1523;-68
2022/03/06 07:04:32;;;;;;;;;;;;;;;;;;5085689;28;1511;-68
2022/03/06 07:06:59;;;;;;;;;;;;;;;;;;5108576;28;1078;-68
2022/03/06 07:09:25;;;;;;;;;;;;;;;;;;5107074;28;1436;-68
2022/03/06 07:11:52;;;;;;;;;;;;;;;;;;5109003;28;1329;-68
2022/03/06 07:14:18;;;;;;;;;;;;;;;;;;5099371;28;1456;-68
2022/03/06 07:16:45;;;;;;;;;;;;;;;;;;5091660;28;1914;-67
2022/03/06 07:19:11;;;;;;;;;;;;;;;;;;5102176;28;1461;-68
2022/03/06 07:21:37;;;;;;;;;;;;;;;;;;5093657;28;1424;-68
2022/03/06 07:24:04;;;;;;;;;;;;;;;;;;5093955;28;1570;-68
2022/03/06 07:26:30;;;;;;;;;;;;;;;;;;5091427;28;967;-68
2022/03/06 07:28:57;;;;;;;;;;;;;;;;;;5106447;28;1523;-67
2022/03/06 07:31:24;;;;;;;;;;;;;;;;;;5111557;28;1011;-67
2022/03/06 07:33:50;;;;;;;;;;;;;;;;;;5091531;28;1528;-68
2022/03/06 07:36:16;;;;;;;;;;;;;;;;;;5091105;28;1910;-68
2022/03/06 07:38:42;;;;;;;;;;;;;;;;;;5103877;28;1476;-68
2022/03/06 07:41:09;;;;;;;;;;;;;;;;;;5111004;28;760;-68
2022/03/06 07:43:36;;;;;;;;;;;;;;;;;;5109264;28;1547;-68
2022/03/06 07:46:03;;;;;;;;;;;;;;;;;;5094290;28;1468;-68
2022/03/06 07:48:29;;;;;;;;;;;;;;;;;;5072774;28;1222;-68
2022/03/06 07:50:56;;;;;;;;;;;;;;;;;;5099327;28;1504;-67
2022/03/06 07:53:22;;;;;;;;;;;;;;;;;;5098312;28;1460;-68
2022/03/06 07:55:48;;;;;;;;;;;;;;;;;;5108978;28;2010;-68
2022/03/06 07:58:14;;;;;;;;;;;;;;;;;;5111106;28;839;-68
2022/03/06 08:00:41;;;;;;;;;;;;;;;;;;5110522;28;1389;-68
2022/03/06 08:03:08;;;;;;;;;;;;;;;;;;5109467;28;1463;-68
2022/03/06 08:05:34;;;;;;;;;;;;;;;;;;5099870;28;1654;-67
2022/03/06 08:08:00;;;;;;;;;;;;;;;;;;5110824;28;1118;-68
2022/03/06 08:10:27;;;;;;;;;;;;;;;;;;5099295;28;1526;-67
2022/03/06 08:12:53;;;;;;;;;;;;;;;;;;5090545;28;1422;-68
2022/03/06 08:15:19;;;;;;;;;;;;;;;;;;5107255;28;1975;-67
2022/03/06 08:17:45;;;;;;;;;;;;;;;;;;5105490;28;1448;-67
2022/03/06 08:20:13;;;;;;;;;;;;;;;;;;5108297;28;1512;-67
2022/03/06 08:22:39;;;;;;;;;;;;;;;;;;5110640;28;1388;-67
2022/03/06 08:25:06;;;;;;;;;;;;;;;;;;5098123;28;1523;-67
2022/03/06 08:27:33;;;;;;;;;;;;;;;;;;5090118;28;1075;-68
2022/03/06 08:29:59;;;;;;;;;;;;;;;;;;5096182;28;1448;-68
2022/03/06 08:32:25;;;;;;;;;;;;;;;;;;5110423;28;1356;-68
2022/03/06 08:34:52;;;;;;;;;;;;;;;;;;5096306;28;1436;-68
2022/03/06 08:37:19;;;;;;;;;;;;;;;;;;5074002;28;1950;-68
2022/03/06 08:39:46;;;;;;;;;;;;;;;;;;5089880;28;798;-68
2022/03/06 08:42:12;;;;;;;;;;;;;;;;;;5103404;28;1433;-67
2022/03/06 08:44:38;;;;;;;;;;;;;;;;;;5091880;28;1452;-67
2022/03/06 08:47:05;;;;;;;;;;;;;;;;;;5101960;28;1405;-68
2022/03/06 08:49:31;;;;;;;;;;;;;;;;;;5105097;28;1468;-66
2022/03/06 08:51:57;;;;;;;;;;;;;;;;;;5110003;28;1352;-67
2022/03/06 08:54:25;;;;;;;;;;;;;;;;;;5081449;22;2737;-68
2022/03/06 08:56:51;;;;;;;;;;;;;;;;;;5045827;28;1918;-68
2022/03/06 08:59:19;;;;;;;;;;;;;;;;;;5050453;28;1445;-68
2022/03/06 09:01:45;;;;;;;;;;;;;;;;;;5048303;28;826;-68
2022/03/06 09:04:12;;;;;;;;;;;;;;;;;;5054277;28;1521;-68
2022/03/06 09:06:39;;;;;;;;;;;;;;;;;;5068329;28;1460;-68
2022/03/06 09:09:05;;;;;;;;;;;;;;;;;;5050131;28;1453;-67
2022/03/06 09:11:33;;;;;;;;;;;;;;;;;;5048520;28;821;-67
2022/03/06 09:13:59;;;;;;;;;;;;;;;;;;5055137;28;1583;-67
2022/03/06 09:16:25;;;;;;;;;;;;;;;;;;5061359;28;1993;-68
2022/03/06 09:18:52;;;;;;;;;;;;;;;;;;5054182;28;1547;-67
2022/03/06 09:21:18;;;;;;;;;;;;;;;;;;5050748;28;1434;-68
2022/03/06 09:23:44;;;;;;;;;;;;;;;;;;5065563;28;1658;-69
2022/03/06 09:26:10;;;;;;;;;;;;;;;;;;5070578;28;735;-67
2022/03/06 09:28:38;;;;;;;;;;;;;;;;;;5050901;28;1437;-70
2022/03/06 09:31:04;;;;;;;;;;;;;;;;;;5066587;28;2022;-67
2022/03/06 09:33:30;;;;;;;;;;;;;;;;;;5061706;28;1746;-69
2022/03/06 09:35:56;;;;;;;;;;;;;;;;;;5063795;28;1969;-68
2022/03/06 09:38:23;;;;;;;;;;;;;;;;;;5073299;28;1517;-68
2022/03/06 09:40:49;;;;;;;;;;;;;;;;;;5081344;28;964;-68
2022/03/06 09:43:16;;;;;;;;;;;;;;;;;;5069274;28;1517;-68
2022/03/06 09:45:44;;;;;;;;;;;;;;;;;;5053033;28;1501;-69
2022/03/06 09:48:11;;;;;;;;;;;;;;;;;;5059675;28;1509;-69
2022/03/06 09:50:37;;;;;;;;;;;;;;;;;;5069029;28;1565;-69
2022/03/06 09:53:03;;;;;;;;;;;;;;;;;;5065670;28;1428;-68
2022/03/06 09:55:30;;;;;;;;;;;;;;;;;;5068967;28;1505;-68
2022/03/06 09:57:57;;;;;;;;;;;;;;;;;;5061761;28;1918;-68
2022/03/06 10:00:24;;;;;;;;;;;;;;;;;;5067324;28;1242;-69
2022/03/06 10:02:57;;;;;;;;;;;;;;;;;;5069315;28;1484;-68
2022/03/06 10:05:30;;;;;;;;;;;;;;;;;;5066570;28;1628;-69
2022/03/06 10:08:16;;;;;;;;;;;;;;;;;;5053617;28;1548;-67
2022/03/06 10:10:42;;;;;;;;;;;;;;;;;;5069829;28;802;-68
2022/03/06 10:13:08;;;;;;;;;;;;;;;;;;5069946;28;1309;-69
2022/03/06 10:15:37;;;;;;;;;;;;;;;;;;5070096;28;909;-69
2022/03/06 10:18:06;;;;;;;;;;;;;;;;;;5067378;28;1337;-69
2022/03/06 10:20:33;;;;;;;;;;;;;;;;;;5070368;28;1099;-68
2022/03/06 10:22:59;;;;;;;;;;;;;;;;;;5070420;28;1370;-69
2022/03/06 10:25:25;;;;;;;;;;;;;;;;;;5070174;28;937;-69
2022/03/06 10:27:53;;;;;;;;;;;;;;;;;;5052174;28;2084;-68
2022/03/06 10:30:23;;;;;;;;;;;;;;;;;;5069769;28;997;-69
2022/03/06 10:32:49;;;;;;;;;;;;;;;;;;5048619;28;1486;-68
2022/03/06 10:35:17;;;;;;;;;;;;;;;;;;5070137;28;893;-69
2022/03/06 10:37:43;;;;;;;;;;;;;;;;;;5052116;28;1993;-69
2022/03/06 10:40:14;;;;;;;;;;;;;;;;;;5069704;28;1121;-69
2022/03/06 10:42:40;;;;;;;;;;;;;;;;;;5070242;28;1150;-69
2022/03/06 10:45:07;;;;;;;;;;;;;;;;;;5070594;28;1404;-69
2022/03/06 10:47:46;;;;;;;;;;;;;;;;;;5071875;28;861;-69
2022/03/06 10:50:12;;;;;;;;;;;;;;;;;;5055937;28;799;-70
2022/03/06 10:52:41;;;;;;;;;;;;;;;;;;5073495;28;960;-68
2022/03/06 10:55:08;;;;;;;;;;;;;;;;;;5073469;28;1321;-69
2022/03/06 10:57:34;;;;;;;;;;;;;;;;;;5073593;28;1918;-69
2022/03/06 11:00:00;;;;;;;;;;;;;;;;;;5073208;28;1070;-68
2022/03/06 11:02:27;;;;;;;;;;;;;;;;;;5073370;28;814;-68
2022/03/06 11:04:56;;;;;;;;;;;;;;;;;;5073679;28;1386;-69
2022/03/06 11:07:23;;;;;;;;;;;;;;;;;;5073810;28;1106;-69
2022/03/06 11:09:50;;;;;;;;;;;;;;;;;;5073318;28;960;-68
2022/03/06 11:12:16;;;;;;;;;;;;;;;;;;5073303;28;1095;-68
2022/03/06 11:14:43;;;;;;;;;;;;;;;;;;5073755;28;1306;-69
2022/03/06 11:17:09;;;;;;;;;;;;;;;;;;5086508;28;1973;-69
2022/03/06 11:19:36;;;;;;;;;;;;;;;;;;5093538;28;1102;-69
2022/03/06 11:22:03;;;;;;;;;;;;;;;;;;5093863;28;774;-69
2022/03/06 11:24:29;;;;;;;;;;;;;;;;;;5093820;28;1317;-69
2022/03/06 11:27:22;;;;;;;;;;;;;;;;;;5087354;28;1161;-68
2022/03/06 11:29:56;;;;;;;;;;;;;;;;;;5071419;28;1580;-69
2022/03/06 11:32:26;;;;;;;;;;;;;;;;;;5089799;28;1270;-69
2022/03/06 11:34:53;;;;;;;;;;;;;;;;;;5093436;28;1400;-69
2022/03/06 11:37:19;;;;;;;;;;;;;;;;;;5075329;28;1917;-68
2022/03/06 11:39:46;;;;;;;;;;;;;;;;;;5093096;28;905;-68
2022/03/06 11:42:32;;;;;;;;;;;;;;;;;;5093477;28;1071;-68
2022/03/06 11:45:00;;;;;;;;;;;;;;;;;;5093165;28;1336;-69
2022/03/06 11:47:38;;;;;;;;;;;;;;;;;;5075852;28;1330;-68
2022/03/06 11:50:06;;;;;;;;;;;;;;;;;;5072579;28;1121;-68
2022/03/06 11:52:32;;;;;;;;;;;;;;;;;;5073083;28;1137;-69
2022/03/06 11:54:59;;;;;;;;;;;;;;;;;;5072619;28;1400;-68
2022/03/06 11:57:35;;;;;;;;;;;;;;;;;;5072697;28;1985;-68
2022/03/06 12:00:15;;;;;;;;;;;;;;;;;;5071900;28;1118;-68
2022/03/06 12:02:45;;;;;;;;;;;;;;;;;;5072698;28;861;-68
2022/03/06 12:05:11;;;;;;;;;;;;;;;;;;5072543;28;1102;-68
2022/03/06 12:07:37;;;;;;;;;;;;;;;;;;5072947;28;972;-68
2022/03/06 12:10:06;;;;;;;;;;;;;;;;;;5054249;28;1324;-68
2022/03/06 12:12:32;;;;;;;;;;;;;;;;;;5072670;28;1424;-67
2022/03/06 12:14:59;;;;;;;;;;;;;;;;;;5072202;28;1576;-68
2022/03/06 12:17:31;;;;;;;;;;;;;;;;;;5072525;28;2006;-68
2022/03/06 12:20:23;;;;;;;;;;;;;;;;;;5067009;28;1481;-68
2022/03/06 12:22:49;;;;;;;;;;;;;;;;;;5052395;28;1300;-68
2022/03/06 12:25:34;;;;;;;;;;;;;;;;;;5059161;28;1509;-67
2022/03/06 12:28:16;;;;;;;;;;;;;;;;;;5072382;28;976;-68
2022/03/06 12:30:42;;;;;;;;;;;;;;;;;;5062109;28;1485;-68
2022/03/06 12:33:23;;;;;;;;;;;;;;;;;;5060473;28;1552;-68
2022/03/06 12:35:51;;;;;;;;;;;;;;;;;;5062112;28;1568;-68
2022/03/06 12:38:21;;;;;;;;;;;;;;;;;;5052643;28;1991;-68
2022/03/06 12:40:47;;;;;;;;;;;;;;;;;;5051710;28;1090;-68
2022/03/06 12:43:13;;;;;;;;;;;;;;;;;;5068884;28;1493;-68
2022/03/06 12:45:40;;;;;;;;;;;;;;;;;;5062947;28;1835;-69
2022/03/06 12:48:06;;;;;;;;;;;;;;;;;;5044069;28;1539;-69
2022/03/06 12:50:32;;;;;;;;;;;;;;;;;;5062582;28;1485;-69
2022/03/06 12:53:00;;;;;;;;;;;;;;;;;;5049688;28;1728;-67
2022/03/06 12:55:26;;;;;;;;;;;;;;;;;;5055399;28;1520;-66
2022/03/06 12:57:54;;;;;;;;;;;;;;;;;;5068043;28;1918;-67
2022/03/06 13:00:23;;;;;;;;;;;;;;;;;;5069779;28;1024;-67
2022/03/06 13:02:49;;;;;;;;;;;;;;;;;;5059814;28;1497;-67
2022/03/06 13:05:16;;;;;;;;;;;;;;;;;;5049573;28;1102;-67
2022/03/06 13:07:43;;;;;;;;;;;;;;;;;;5057646;28;1651;-67
2022/03/06 13:10:13;;;;;;;;;;;;;;;;;;5068742;28;1146;-67
2022/03/06 13:12:40;;;;;;;;;;;;;;;;;;5062233;28;1461;-67
2022/03/06 13:15:17;;;;;;;;;;;;;;;;;;5048862;28;1276;-67
2022/03/06 13:17:43;;;;;;;;;;;;;;;;;;5056317;28;1969;-67
2022/03/06 13:20:10;;;;;;;;;;;;;;;;;;5069145;28;1146;-67
2022/03/06 13:22:36;;;;;;;;;;;;;;;;;;5057988;28;1462;-67
2022/03/06 13:25:03;;;;;;;;;;;;;;;;;;5049199;28;1390;-66
2022/03/06 13:27:32;;;;;;;;;;;;;;;;;;5041205;28;1477;-67
2022/03/06 13:30:02;;;;;;;;;;;;;;;;;;5052238;28;1486;-66
2022/03/06 13:32:29;;;;;;;;;;;;;;;;;;5064704;28;1540;-67
2022/03/06 13:34:55;;;;;;;;;;;;;;;;;;5069039;28;1327;-66
2022/03/06 13:37:30;;;;;;;;;;;;;;;;;;5066704;28;1918;-66
2022/03/06 13:39:56;;;;;;;;;;;;;;;;;;5067166;28;1292;-66
2022/03/06 13:42:31;;;;;;;;;;;;;;;;;;5087492;28;1471;-66
2022/03/06 13:44:57;;;;;;;;;;;;;;;;;;5048949;28;1363;-66
2022/03/06 13:47:23;;;;;;;;;;;;;;;;;;5067049;28;1462;-66
2022/03/06 13:49:58;;;;;;;;;;;;;;;;;;5068767;28;1142;-66
2022/03/06 13:52:31;;;;;;;;;;;;;;;;;;5060067;28;1520;-66
2022/03/06 13:55:02;;;;;;;;;;;;;;;;;;5048953;28;1540;-66
2022/03/06 13:57:28;;;;;;;;;;;;;;;;;;5048486;28;1922;-66
2022/03/06 13:59:56;;;;;;;;;;;;;;;;;;5064383;28;1454;-66
2022/03/06 14:02:24;;;;;;;;;;;;;;;;;;5057712;28;1520;-67
2022/03/06 14:04:50;;;;;;;;;;;;;;;;;;5048378;28;1344;-66
2022/03/06 14:07:20;;;;;;;;;;;;;;;;;;5057455;28;1520;-66
2022/03/06 14:09:48;;;;;;;;;;;;;;;;;;5065394;28;1835;-66
2022/03/06 14:12:15;;;;;;;;;;;;;;;;;;5048426;28;1528;-67
2022/03/06 14:14:42;;;;;;;;;;;;;;;;;;5048643;28;1395;-66
2022/03/06 14:17:10;;;;;;;;;;;;;;;;;;5068215;28;1910;-67
2022/03/06 14:19:36;;;;;;;;;;;;;;;;;;5068342;28;846;-66
2022/03/06 14:22:03;;;;;;;;;;;;;;;;;;5050967;28;1497;-66
2022/03/06 14:24:29;;;;;;;;;;;;;;;;;;5052281;28;1295;-66
2022/03/06 14:26:55;;;;;;;;;;;;;;;;;;5066335;28;1501;-66
2022/03/06 14:29:23;;;;;;;;;;;;;;;;;;5071029;28;987;-66
2022/03/06 14:31:50;;;;;;;;;;;;;;;;;;5065687;28;1496;-67
2022/03/06 14:34:18;;;;;;;;;;;;;;;;;;5072647;28;1330;-67
2022/03/06 14:36:44;;;;;;;;;;;;;;;;;;5072111;28;1453;-68
2022/03/06 14:39:11;;;;;;;;;;;;;;;;;;5072237;28;1910;-68
2022/03/06 14:41:37;;;;;;;;;;;;;;;;;;5059927;28;1512;-67
2022/03/06 14:44:04;;;;;;;;;;;;;;;;;;5072125;28;1412;-68
2022/03/06 14:46:30;;;;;;;;;;;;;;;;;;5059937;28;1457;-68
2022/03/06 14:48:56;;;;;;;;;;;;;;;;;;5051883;28;936;-68
2022/03/06 14:51:24;;;;;;;;;;;;;;;;;;5061358;28;1639;-68
2022/03/06 14:53:51;;;;;;;;;;;;;;;;;;5071711;28;1321;-67
2022/03/06 14:56:19;;;;;;;;;;;;;;;;;;5112872;22;3582;-66
2022/03/06 14:58:45;;;;;;;;;;;;;;;;;;5111273;28;1973;-66
2022/03/06 15:01:11;;;;;;;;;;;;;;;;;;5101151;28;1428;-66
2022/03/06 15:03:38;;;;;;;;;;;;;;;;;;5097634;28;1479;-66
2022/03/06 15:06:05;;;;;;;;;;;;;;;;;;5112139;28;1440;-67
2022/03/06 15:08:32;;;;;;;;;;;;;;;;;;5107754;28;1464;-68
2022/03/06 15:10:58;;;;;;;;;;;;;;;;;;5091053;28;1206;-68
2022/03/06 15:13:26;;;;;;;;;;;;;;;;;;5091618;28;1309;-67
2022/03/06 15:15:52;;;;;;;;;;;;;;;;;;5111930;28;1349;-67
2022/03/06 15:18:18;;;;;;;;;;;;;;;;;;5096446;28;1898;-65
2022/03/06 15:20:45;;;;;;;;;;;;;;;;;;5091696;28;1092;-66
2022/03/06 15:23:11;;;;;;;;;;;;;;;;;;5098870;28;1504;-67
2022/03/06 15:25:38;;;;;;;;;;;;;;;;;;5111793;28;1332;-67
2022/03/06 15:28:05;;;;;;;;;;;;;;;;;;5095419;28;1471;-66
2022/03/06 15:30:31;;;;;;;;;;;;;;;;;;5091525;28;1011;-66
2022/03/06 15:32:57;;;;;;;;;;;;;;;;;;5103422;28;1515;-66
2022/03/06 15:35:24;;;;;;;;;;;;;;;;;;5100319;28;1491;-67
2022/03/06 15:37:50;;;;;;;;;;;;;;;;;;5091338;28;1914;-66
2022/03/06 15:40:17;;;;;;;;;;;;;;;;;;5099888;28;1460;-68
2022/03/06 15:42:44;;;;;;;;;;;;;;;;;;5111667;28;952;-67
2022/03/06 15:45:12;;;;;;;;;;;;;;;;;;5098808;28;1499;-68
2022/03/06 15:47:38;;;;;;;;;;;;;;;;;;5091168;28;782;-67
2022/03/06 15:50:05;;;;;;;;;;;;;;;;;;5100992;28;1469;-67
2022/03/06 15:52:32;;;;;;;;;;;;;;;;;;5111741;28;868;-67
2022/03/06 15:54:59;;;;;;;;;;;;;;;;;;5110173;28;1459;-68
2022/03/06 15:57:25;;;;;;;;;;;;;;;;;;5094735;28;1697;-67
2022/03/06 15:59:53;;;;;;;;;;;;;;;;;;5089898;28;1844;-67
2022/03/06 16:02:20;;;;;;;;;;;;;;;;;;5088505;28;2391;-66
2022/03/06 16:04:46;;;;;;;;;;;;;;;;;;5081946;28;2036;-67
2022/03/06 16:07:12;;;;;;;;;;;;;;;;;;5099237;28;1349;-68
2022/03/06 16:09:39;;;;;;;;;;;;;;;;;;5092363;28;1311;-67
2022/03/06 16:12:05;;;;;;;;;;;;;;;;;;5103368;28;1528;-67
2022/03/06 16:14:32;;;;;;;;;;;;;;;;;;5098281;28;1274;-67
2022/03/06 16:16:59;;;;;;;;;;;;;;;;;;5092596;28;1314;-67
2022/03/06 16:19:25;;;;;;;;;;;;;;;;;;5110730;28;1972;-67
2022/03/06 16:21:52;;;;;;;;;;;;;;;;;;5112602;28;1022;-67
2022/03/06 16:24:18;;;;;;;;;;;;;;;;;;5110250;28;1515;-67
2022/03/06 16:26:44;;;;;;;;;;;;;;;;;;5099567;28;1519;-67
2022/03/06 16:29:11;;;;;;;;;;;;;;;;;;5092776;28;1303;-67
2022/03/06 16:31:37;;;;;;;;;;;;;;;;;;5084030;28;1566;-68
2022/03/06 16:34:05;;;;;;;;;;;;;;;;;;5112819;28;940;-67
2022/03/06 16:36:33;;;;;;;;;;;;;;;;;;5093202;28;1523;-67
2022/03/06 16:38:59;;;;;;;;;;;;;;;;;;5092387;28;1951;-67
2022/03/06 16:41:26;;;;;;;;;;;;;;;;;;5109267;28;1456;-67
2022/03/06 16:43:52;;;;;;;;;;;;;;;;;;5110792;28;1520;-67
2022/03/06 16:46:19;;;;;;;;;;;;;;;;;;5111530;28;1499;-68
2022/03/06 16:48:45;;;;;;;;;;;;;;;;;;5092535;28;1513;-68
2022/03/06 16:51:13;;;;;;;;;;;;;;;;;;5069291;28;893;-68
2022/03/06 16:53:40;;;;;;;;;;;;;;;;;;5107389;28;1520;-67
2022/03/06 16:56:06;;;;;;;;;;;;;;;;;;5110868;28;1303;-67
2022/03/06 16:58:32;;;;;;;;;;;;;;;;;;5095103;28;1892;-68
2022/03/06 17:00:59;;;;;;;;;;;;;;;;;;5101883;28;1543;-68
2022/03/06 17:03:25;;;;;;;;;;;;;;;;;;5110346;28;825;-67
2022/03/06 17:05:52;;;;;;;;;;;;;;;;;;5099944;28;1523;-68